HOURLY OBS INDEX

035

Central Highlands

BLACKWATER AIRPORT

Site: 035134
Alt: 193.0m
km of


  Time     Wind        Temp  DP   Baro     Rain since   Rain past  Vis(m), Cloud(base in m), Weather
  local        km/h                         9am  last   hr   10m    
Tue 14:00   NE 11/ 15  32.9 16.7  1010.7    0.0   0.0   0.0   0.0   ----- 
Tue 14:30    N 13/ 20  33.9 16.7  1010.2    0.0   0.0   0.0   0.0   ----- 
Tue 14:30    N 13/ 20  33.9 16.7  1010.2    0.0   0.0  ----   0.0   ----- 
Tue 15:00    N 11/ 20  33.2 16.1  1009.8    0.0   0.0   0.0   0.0   ----- 
Tue 15:00    N 11/ 20  33.2 16.1  1009.8    0.0   0.0  ----   0.0   ----- 
Tue 15:30    N 13/ 22  33.8 16.2  1009.4    0.0   0.0   0.0   0.0   ----- 
Tue 16:00  ENE 11/ 17  34.0 17.2  1009.2    0.0   0.0   0.0   0.0   ----- 
Tue 16:30  ENE 11/ 13  33.8 16.6  1009.2    0.0   0.0   0.0   0.0   ----- 
Tue 17:00  NNE 13/ 17  33.3 16.6  1009.2    0.0   0.0   0.0   0.0   ----- 
Tue 17:30    N 13/ 19  32.6 17.2  1009.4    0.0   0.0   0.0   0.0   ----- 
Tue 18:00    N 11/ 17  31.4 18.0  1009.8    0.0   0.0   0.0   0.0   ----- 
Tue 18:30  NNW  9/ 13  30.0 18.8  1010.4    0.0   0.0   0.0   0.0   ----- 
Tue 18:30  NNW  9/ 13  30.0 18.8  1010.4    0.0   0.0  ----   0.0   ----- 
Tue 18:30  NNW  9/ 13  30.0 18.8  1010.4    0.0   0.0  ----   0.0   ----- 
Tue 18:30  NNW  9/ 13  30.0 18.8  1010.4    0.0   0.0  ----   0.0   ----- 
Tue 19:00  WNW  9/ 17  29.5 20.1  1011.0    0.0   0.0   0.0   0.0   ----- 
Tue 19:30   SW  9/ 13  28.9 18.4  1011.4    0.0   0.0   0.0   0.0   ----- 

CLERMONT AIRPORT

Site: 035124
Alt: 270.3m
98km NNW of EMERALD


  Time     Wind        Temp  DP   Baro     Rain since   Rain past  Vis(m), Cloud(base in m), Weather
  local        km/h                         9am  last   hr   10m    
Tue 14:00  ESE  6/ 11  33.8 16.2  1010.8    0.0   0.0   0.0   0.0   ----- 
Tue 14:30    S  9/ 17  34.1 16.5  1010.3    0.0   0.0   0.0   0.0   ----- 
Tue 14:30    S  9/ 17  34.1 16.5  1010.3    0.0   0.0  ----   0.0   ----- 
Tue 15:00  ENE  6/  7  33.4 16.3  1009.9    0.0   0.0   0.0   0.0   ----- 
Tue 15:00  ENE  6/  7  33.4 16.3  1009.9    0.0   0.0  ----   0.0   ----- 
Tue 15:30  ENE  9/ 17  34.1 16.0  1009.5    0.0   0.0   0.0   0.0   ----- 
Tue 16:00  ESE  7/ 13  33.6 15.1  1009.6    0.0   0.0   0.0   0.0   ----- 
Tue 16:30  ESE  6/ 17  33.4 15.4  1009.4    0.0   0.0   0.0   0.0   ----- 
Tue 17:00  ENE  7/ 13  33.7 15.7  1009.3    0.0   0.0   0.0   0.0   ----- 
Tue 17:30    E  6/ 11  33.2 14.8  1009.4    0.0   0.0   0.0   0.0   ----- 
Tue 18:00   NE  7/ 13  32.8 15.8  1009.7    0.0   0.0   0.0   0.0   ----- 
Tue 18:30   NE  6/ 11  31.6 15.5  1010.1    0.0   0.0   0.0   0.0   ----- 
Tue 18:30   NE  6/ 11  31.6 15.5  1010.1    0.0   0.0  ----   0.0   ----- 
Tue 18:30   NE  6/ 11  31.6 15.5  1010.1    0.0   0.0  ----   0.0   ----- 
Tue 18:30   NE  6/ 11  31.6 15.5  1010.1    0.0   0.0  ----   0.0   ----- 
Tue 19:00   NE  6/  7  30.7 16.7  1010.9    0.0   0.0   0.0   0.0   ----- 
Tue 19:30   NE  6/  7  30.0 16.8  1011.5    0.0   0.0   0.0   0.0   ----- 

EMERALD AIRPORT

Site: 035264
Alt: 189.4m
7km SSE of EMERALD


  Time     Wind        Temp  DP   Baro     Rain since   Rain past  Vis(m), Cloud(base in m), Weather
  local        km/h                         9am  last   hr   10m    
Tue 14:00  ENE 15/ 24  34.0 17.7  1010.4    0.0   0.0   0.0   0.0   10000 
Tue 14:30    E 15/ 20  34.0 17.2  1009.9    0.0   0.0   0.0   0.0   10000 
Tue 14:30    E 15/ 20  34.0 17.2  1009.9    0.0   0.0  ----   0.0   10000 
Tue 15:00    E 17/ 26  33.8 17.5  1009.4    0.0   0.0   0.0   0.0   10000 
Tue 15:00    E 17/ 26  33.8 17.5  1009.4    0.0   0.0  ----   0.0   10000 
Tue 15:30  NNE 13/ 20  34.9 17.6  1008.8    0.0   0.0   0.0   0.0   10000 
Tue 16:00  NNE 15/ 20  34.6 16.9  1008.6    0.0   0.0   0.0   0.0   10000 
Tue 16:30   NE 15/ 20  34.7 17.4  1008.6    0.0   0.0   0.0   0.0   10000 
Tue 17:00  NNE 13/ 19  34.8 17.5  1009.0    0.0   0.0   0.0   0.0   10000 
Tue 17:30   NE 11/ 17  34.0 17.2  1009.0    0.0   0.0   0.0   0.0   10000 
Tue 18:00   NE 15/ 19  33.0 18.4  1009.1    0.0   0.0   0.0   0.0   10000 
Tue 18:30  ENE 15/ 19  32.5 18.7  1009.9    0.0   0.0   0.0   0.0   10000|SC3000 
Tue 18:30  ENE 15/ 19  32.5 18.7  1009.9    0.0   0.0  ----   0.0   10000|SC3000 
Tue 18:30  ENE 15/ 19  32.5 18.7  1009.9    0.0   0.0  ----   0.0   10000|SC3000 
Tue 18:30  ENE 15/ 19  32.5 18.7  1009.9    0.0   0.0  ----   0.0   10000|SC3000 
Tue 19:00    E 11/ 13  32.0 19.6  1010.7    0.0   0.0   0.0   0.0   10000|BR3000 BR3450 
Tue 19:30    S 15/ 20  29.4 18.5  1011.7    0.0   0.0   0.0   0.0   10000|SC2160 SC2730 BR3450 

LOCHINGTON

Site: 035139
Alt: 267.2m
80km SW of EMERALD


  Time     Wind        Temp  DP   Baro     Rain since   Rain past  Vis(m), Cloud(base in m), Weather
  local        km/h                         9am  last   hr   10m    
Tue 14:00  ESE  6/ 15  33.3 16.6  1010.2    0.0   0.0   0.0   0.0   ----- 
Tue 14:30    N  9/ 17  33.2 16.1  1009.6    0.0   0.0   0.0   0.0   ----- 
Tue 14:30    N  9/ 17  33.2 16.1  1009.6    0.0   0.0  ----   0.0   ----- 
Tue 15:00    N  7/ 15  35.8 16.5  1009.3    0.0   0.0   0.0   0.0   ----- 
Tue 15:00    N  7/ 15  35.8 16.5  1009.3    0.0   0.0  ----   0.0   ----- 
Tue 15:30  ENE  9/ 17  34.6 15.0  1008.9    0.0   0.0   0.0   0.0   ----- 
Tue 16:00   NW  9/ 15  35.1 14.9  1008.7    0.0   0.0   0.0   0.0   ----- 
Tue 16:30  WNW  6/  9  34.1 14.1  1009.0    0.0   0.0   0.0   0.0   ----- 
Tue 17:00   SW 11/ 26  31.6 16.4  1009.4    0.0   0.0   0.0   0.0   ----- 
Tue 17:30  SSE 20/ 33  29.5 18.3  1009.4    0.0   0.0   0.0   0.0   ----- 
Tue 18:00  ESE 22/ 37  27.1 18.4  1010.1    0.0   0.0   0.0   0.0   ----- 
Tue 18:30    E 17/ 24  26.1 17.7  1010.7    0.0   0.0   0.0   0.0   ----- 
Tue 18:30    E 17/ 24  26.1 17.7  1010.7    0.0   0.0  ----   0.0   ----- 
Tue 18:30    E 17/ 24  26.1 17.7  1010.7    0.0   0.0  ----   0.0   ----- 
Tue 18:30    E 17/ 24  26.1 17.7  1010.7    0.0   0.0  ----   0.0   ----- 
Tue 19:00  ESE  7/ 11  26.0 17.9  1011.1    0.0   0.0   0.0   0.0   ----- 
Tue 19:30    E  6/  9  25.6 18.8  1011.6    0.0   0.0   0.0   0.0   ----- 

ROLLESTON AIRPORT

Site: 035129
Alt: 219.5m
101km SSW of BLACKWATER


  Time     Wind        Temp  DP   Baro     Rain since   Rain past  Vis(m), Cloud(base in m), Weather
  local        km/h                         9am  last   hr   10m    
Tue 14:00    N  9/ 13  33.3 15.8  1010.3    0.0   0.0   0.0   0.0   ----- 
Tue 14:30   NW  7/  9  33.2 15.7  1010.1    0.0   0.0   0.0   0.0   ----- 
Tue 14:30   NW  7/  9  33.2 15.7  1010.1    0.0   0.0  ----   0.0   ----- 
Tue 15:00    N 11/ 15  33.3 15.3  1009.5    0.0   0.0   0.0   0.0   ----- 
Tue 15:00    N 11/ 15  33.3 15.3  1009.5    0.0   0.0  ----   0.0   ----- 
Tue 15:30   NW  6/ 13  34.1 16.0  1009.3    0.0   0.0   0.0   0.0   ----- 
Tue 16:00   NW  7/ 13  33.7 16.6  1009.2    0.0   0.0   0.0   0.0   ----- 
Tue 16:30    W  9/ 13  33.0 16.8  1009.2    0.0   0.0   0.0   0.0   ----- 
Tue 17:00  WSW  7/ 11  33.2 18.2  1009.2    0.0   0.0   0.0   0.0   ----- 
Tue 17:30    W  9/ 13  32.8 16.6  1009.7    0.0   0.0   0.0   0.0   ----- 
Tue 18:00  WNW  7/ 17  31.1 17.8  1009.7    0.0   0.0   0.0   0.0   ----- 
Tue 18:30  WNW  7/ 13  29.3 18.4  1010.1    0.0   0.0   0.0   0.0   ----- 
Tue 18:30  WNW  7/ 13  29.3 18.4  1010.1    0.0   0.0  ----   0.0   ----- 
Tue 18:30  WNW  7/ 13  29.3 18.4  1010.1    0.0   0.0  ----   0.0   ----- 
Tue 18:30  WNW  7/ 13  29.3 18.4  1010.1    0.0   0.0  ----   0.0   ----- 
Tue 19:00  WNW  7/ 11  28.4 18.2  1011.0    0.0   0.0   0.0   0.0   ----- 
Tue 19:30    N  7/ 11  27.3 18.9  1011.3    0.0   0.0   0.0   0.0   -----